createdAt,value
2023-01-31T00:02:00.988Z,3.60
2023-01-31T00:04:29.184Z,3.50
2023-01-31T00:06:57.196Z,3.50
2023-01-31T00:09:25.230Z,3.40
2023-01-31T00:11:53.425Z,3.40
2023-01-31T00:14:22.109Z,3.40
2023-01-31T00:16:50.156Z,3.40
2023-01-31T00:19:19.858Z,3.30
2023-01-31T00:21:47.880Z,3.30
2023-01-31T00:24:16.477Z,3.30
2023-01-31T00:26:44.627Z,3.30
2023-01-31T00:29:12.835Z,3.30
2023-01-31T00:31:41.168Z,3.30
2023-01-31T00:34:09.550Z,3.30
2023-01-31T00:36:39.496Z,3.30
2023-01-31T00:39:09.050Z,3.30
2023-01-31T00:41:39.243Z,3.20
2023-01-31T00:44:08.253Z,3.20
2023-01-31T00:46:36.760Z,3.20
2023-01-31T00:49:05.486Z,3.10
2023-01-31T00:51:33.530Z,3.20
2023-01-31T00:54:03.013Z,3.20
2023-01-31T00:56:31.177Z,3.10
2023-01-31T00:59:00.363Z,3.10
2023-01-31T01:01:30.039Z,3.10
2023-01-31T01:03:58.877Z,3.10
2023-01-31T01:06:27.665Z,3.10
2023-01-31T01:08:56.575Z,3.10
2023-01-31T01:11:28.566Z,3.10
2023-01-31T01:13:56.800Z,3.00
2023-01-31T01:16:26.626Z,3.00
2023-01-31T01:18:55.961Z,3.00
2023-01-31T01:21:25.360Z,3.00
2023-01-31T01:23:53.797Z,3.00
2023-01-31T01:26:23.654Z,3.00
2023-01-31T01:28:54.193Z,3.00
2023-01-31T01:31:22.914Z,3.00
2023-01-31T01:33:51.184Z,3.00
2023-01-31T01:36:22.091Z,3.00
2023-01-31T01:38:50.579Z,3.00
2023-01-31T01:41:18.994Z,3.00
2023-01-31T01:43:49.176Z,2.90
2023-01-31T01:46:25.772Z,2.90
2023-01-31T01:48:58.516Z,3.00
2023-01-31T01:51:27.422Z,3.00
2023-01-31T01:53:58.390Z,3.00
2023-01-31T01:56:33.943Z,2.90
2023-01-31T01:59:07.210Z,2.90
2023-01-31T02:01:39.106Z,2.90
2023-01-31T02:04:11.140Z,2.90
2023-01-31T02:06:39.302Z,2.90
2023-01-31T02:09:10.553Z,2.90
2023-01-31T02:11:38.756Z,2.90
2023-01-31T02:14:09.452Z,2.90
2023-01-31T02:16:39.254Z,2.90
2023-01-31T02:19:15.797Z,2.90
2023-01-31T02:22:11.128Z,2.90
2023-01-31T02:25:15.473Z,2.90
2023-01-31T02:28:26.910Z,2.90
2023-01-31T02:31:13.635Z,2.90
2023-01-31T02:33:50.623Z,2.90
2023-01-31T02:36:31.008Z,2.90
2023-01-31T02:39:08.535Z,2.90
2023-01-31T02:41:44.938Z,2.90
2023-01-31T02:44:38.627Z,2.90
2023-01-31T02:47:15.476Z,2.90
2023-01-31T02:49:50.460Z,2.90
2023-01-31T02:52:23.067Z,2.90
2023-01-31T02:55:20.624Z,2.90
2023-01-31T02:57:52.141Z,2.90
2023-01-31T03:00:21.897Z,2.90
2023-01-31T03:02:49.997Z,2.90
2023-01-31T03:05:21.014Z,2.90
2023-01-31T03:07:53.898Z,2.90
2023-01-31T03:10:34.941Z,2.90
2023-01-31T03:13:14.877Z,2.90
2023-01-31T03:16:07.225Z,2.90
2023-01-31T03:18:43.348Z,2.90
2023-01-31T03:21:17.558Z,2.90
2023-01-31T03:23:49.535Z,2.90
2023-01-31T03:26:20.268Z,2.90
2023-01-31T03:28:54.575Z,2.90
2023-01-31T03:31:26.356Z,3.00
2023-01-31T03:33:58.134Z,3.00
2023-01-31T03:36:36.903Z,3.00
2023-01-31T03:39:14.334Z,3.10
2023-01-31T03:41:51.881Z,3.10
2023-01-31T03:44:32.601Z,3.10
2023-01-31T03:47:05.604Z,3.10
2023-01-31T03:49:35.189Z,3.10
2023-01-31T03:52:09.195Z,3.10
2023-01-31T03:54:42.148Z,3.10
2023-01-31T03:57:16.975Z,3.00
2023-01-31T03:59:47.896Z,3.00
2023-01-31T04:02:18.288Z,3.00
2023-01-31T04:04:51.918Z,3.00
2023-01-31T04:07:21.616Z,3.00
2023-01-31T04:09:49.754Z,3.00
2023-01-31T04:12:17.900Z,3.00
2023-01-31T04:14:45.974Z,2.90
2023-01-31T04:17:14.399Z,2.90
2023-01-31T04:19:42.575Z,2.90
2023-01-31T04:22:10.640Z,2.90
2023-01-31T04:24:40.330Z,2.90
2023-01-31T04:27:08.352Z,2.90
2023-01-31T04:29:36.661Z,2.90
2023-01-31T04:32:05.114Z,2.90
2023-01-31T04:34:33.267Z,2.90
2023-01-31T04:37:01.324Z,2.90
2023-01-31T04:39:29.516Z,2.90
2023-01-31T04:41:58.914Z,2.80
2023-01-31T04:44:26.961Z,2.80
2023-01-31T04:46:55.011Z,2.80
2023-01-31T04:49:23.301Z,2.80
2023-01-31T04:51:51.332Z,2.80
2023-01-31T04:54:19.455Z,2.80
2023-01-31T04:56:47.530Z,2.80
2023-01-31T04:59:17.071Z,2.70
2023-01-31T05:01:45.107Z,2.70
2023-01-31T05:04:13.326Z,2.70
2023-01-31T05:06:41.332Z,2.70
2023-01-31T05:09:09.660Z,2.70
2023-01-31T05:11:37.697Z,2.70
2023-01-31T05:14:05.799Z,2.70
2023-01-31T05:16:36.475Z,2.70
2023-01-31T05:19:04.595Z,2.70
2023-01-31T05:21:53.015Z,2.80
2023-01-31T05:24:21.267Z,2.70
2023-01-31T05:26:51.458Z,2.70
2023-01-31T05:29:19.905Z,2.70
2023-01-31T05:31:52.230Z,2.70
2023-01-31T05:34:20.612Z,2.70
2023-01-31T05:36:48.653Z,2.60
2023-01-31T05:39:16.804Z,2.60
2023-01-31T05:41:44.903Z,2.60
2023-01-31T05:44:13.004Z,2.60
2023-01-31T05:46:41.442Z,2.60
2023-01-31T05:49:10.931Z,2.60
2023-01-31T05:51:39.097Z,2.60
2023-01-31T05:54:07.528Z,2.60
2023-01-31T05:56:35.833Z,2.70
2023-01-31T05:59:03.905Z,2.60
2023-01-31T06:01:32.204Z,2.70
2023-01-31T06:04:00.659Z,2.70
2023-01-31T06:06:30.775Z,2.70
2023-01-31T06:08:59.002Z,2.70
2023-01-31T06:11:27.085Z,2.70
2023-01-31T06:13:57.640Z,2.70
2023-01-31T06:16:25.801Z,2.70
2023-01-31T06:18:55.625Z,2.70
2023-01-31T06:21:24.007Z,2.70
2023-01-31T06:23:53.447Z,2.70
2023-01-31T06:26:21.508Z,2.70
2023-01-31T06:28:49.731Z,2.70
2023-01-31T06:31:17.851Z,2.60
2023-01-31T06:33:47.941Z,2.70
2023-01-31T06:36:19.003Z,2.70
2023-01-31T06:38:51.026Z,2.70
2023-01-31T06:41:21.312Z,2.70
2023-01-31T06:43:49.584Z,2.70
2023-01-31T06:46:17.692Z,2.70
2023-01-31T06:48:45.866Z,2.70
2023-01-31T06:51:13.918Z,2.70
2023-01-31T06:53:42.106Z,2.70
2023-01-31T06:56:11.003Z,2.70
2023-01-31T06:58:41.775Z,2.70
2023-01-31T07:01:12.333Z,2.70
2023-01-31T07:03:41.050Z,2.70
2023-01-31T07:06:10.710Z,2.80
2023-01-31T07:08:39.096Z,2.80
2023-01-31T07:11:07.533Z,2.80
2023-01-31T07:13:35.631Z,2.90
2023-01-31T07:16:05.449Z,2.90
2023-01-31T07:18:33.594Z,2.90
2023-01-31T07:21:01.637Z,3.00
2023-01-31T07:23:30.106Z,3.00
2023-01-31T07:25:58.754Z,3.10
2023-01-31T07:28:26.918Z,3.10
2023-01-31T07:30:54.932Z,3.20
2023-01-31T07:33:24.422Z,3.20
2023-01-31T07:35:52.423Z,3.20
2023-01-31T07:38:20.446Z,3.20
2023-01-31T07:40:48.481Z,3.30
2023-01-31T07:43:16.598Z,3.30
2023-01-31T07:45:44.664Z,3.40
2023-01-31T07:48:12.708Z,3.40
2023-01-31T07:50:42.212Z,3.50
2023-01-31T07:53:10.237Z,3.50
2023-01-31T07:55:38.276Z,3.60
2023-01-31T07:58:06.300Z,3.70
2023-01-31T08:00:51.675Z,3.80
2023-01-31T08:03:35.224Z,3.90
2023-01-31T08:06:10.139Z,4.00
2023-01-31T08:08:39.111Z,4.10
2023-01-31T08:11:07.496Z,4.20
2023-01-31T08:13:36.306Z,4.30
2023-01-31T08:16:05.413Z,4.40
2023-01-31T08:18:34.081Z,4.50
2023-01-31T08:21:02.461Z,4.60
2023-01-31T08:23:32.150Z,4.80
2023-01-31T08:26:04.747Z,4.90
2023-01-31T08:28:33.292Z,5.00
2023-01-31T08:31:09.146Z,5.10
2023-01-31T08:33:38.516Z,5.20
2023-01-31T08:36:11.102Z,5.30
2023-01-31T08:38:40.864Z,5.50
2023-01-31T08:41:09.148Z,5.60
2023-01-31T08:43:53.665Z,5.80
2023-01-31T08:46:25.012Z,5.90
2023-01-31T08:48:53.168Z,6.00
2023-01-31T08:51:21.398Z,6.00
2023-01-31T08:53:50.849Z,6.10
2023-01-31T08:56:21.353Z,6.20
2023-01-31T08:58:49.843Z,6.30
2023-01-31T09:01:19.606Z,6.40
2023-01-31T09:03:48.560Z,6.40
2023-01-31T09:06:18.347Z,6.40
2023-01-31T09:08:46.516Z,6.40
2023-01-31T09:11:19.431Z,6.50
2023-01-31T09:13:51.229Z,6.50
2023-01-31T09:16:21.057Z,6.60
2023-01-31T09:18:49.302Z,6.70
2023-01-31T09:21:18.969Z,6.80
2023-01-31T09:23:47.702Z,6.80
2023-01-31T09:26:17.940Z,6.90
2023-01-31T09:28:46.239Z,6.90
2023-01-31T09:31:16.534Z,7.00
2023-01-31T09:33:45.485Z,7.00
2023-01-31T09:36:14.934Z,7.10
2023-01-31T09:38:43.133Z,7.10
2023-01-31T09:41:20.773Z,7.30
2023-01-31T09:43:55.621Z,7.40
2023-01-31T09:46:29.840Z,7.40
2023-01-31T09:49:00.715Z,7.50
2023-01-31T09:51:30.089Z,7.60
2023-01-31T09:53:58.932Z,7.70
2023-01-31T09:56:37.189Z,7.80
2023-01-31T09:59:13.769Z,8.00
2023-01-31T10:01:54.682Z,8.20
2023-01-31T10:04:36.820Z,8.40
2023-01-31T10:07:10.909Z,8.60
2023-01-31T10:09:43.727Z,8.70
2023-01-31T10:12:18.481Z,9.00
2023-01-31T10:14:50.382Z,9.20
2023-01-31T10:17:22.120Z,9.50
2023-01-31T10:19:55.625Z,9.70
2023-01-31T10:22:29.521Z,10.00
2023-01-31T10:25:24.264Z,10.20
2023-01-31T10:27:59.193Z,10.30
2023-01-31T10:30:38.307Z,10.60
2023-01-31T10:33:18.621Z,10.70
2023-01-31T10:35:49.370Z,10.90
2023-01-31T10:38:20.860Z,11.00
2023-01-31T10:40:53.047Z,11.00
2023-01-31T10:43:33.963Z,11.10
2023-01-31T10:46:02.864Z,11.20
2023-01-31T10:48:31.440Z,11.40
2023-01-31T10:51:08.337Z,11.60
2023-01-31T10:53:50.452Z,11.80
2023-01-31T10:56:27.125Z,12.20
2023-01-31T10:58:57.811Z,12.50
2023-01-31T11:01:26.086Z,12.70
2023-01-31T11:03:55.842Z,12.90
2023-01-31T11:06:25.443Z,12.90
2023-01-31T11:08:56.637Z,13.00
2023-01-31T11:11:27.030Z,13.20
2023-01-31T11:14:01.291Z,13.30
2023-01-31T11:16:32.014Z,13.40
2023-01-31T11:19:02.338Z,13.40
2023-01-31T11:21:32.899Z,13.50
2023-01-31T11:24:04.932Z,13.70
2023-01-31T11:26:35.914Z,14.10
2023-01-31T11:29:09.548Z,14.30
2023-01-31T11:31:42.459Z,14.60
2023-01-31T11:34:21.208Z,14.60
2023-01-31T11:36:49.346Z,14.70
2023-01-31T11:39:29.462Z,14.70
2023-01-31T11:41:57.514Z,14.60
2023-01-31T11:44:26.918Z,14.50
2023-01-31T11:46:57.860Z,14.40
2023-01-31T11:49:31.844Z,14.30
2023-01-31T11:52:02.647Z,14.20
2023-01-31T11:54:34.931Z,14.10
2023-01-31T11:57:03.705Z,14.20
2023-01-31T11:59:33.257Z,14.20
2023-01-31T12:02:02.538Z,14.30
2023-01-31T12:04:40.795Z,14.40
2023-01-31T12:07:25.025Z,14.60
2023-01-31T12:09:53.446Z,14.90
2023-01-31T12:12:25.460Z,15.30
2023-01-31T12:14:57.616Z,15.80
2023-01-31T12:17:25.951Z,16.40
2023-01-31T12:20:28.492Z,17.20
2023-01-31T12:23:07.509Z,18.10
2023-01-31T12:28:25.405Z,20.10
2023-01-31T12:31:06.971Z,21.10
2023-01-31T12:33:54.384Z,22.80
2023-01-31T12:36:35.399Z,22.90
2023-01-31T12:39:16.094Z,24.20
2023-01-31T12:42:00.997Z,24.50
2023-01-31T12:44:43.199Z,25.10
2023-01-31T12:47:30.119Z,25.60
2023-01-31T12:50:19.872Z,26.60
2023-01-31T12:52:56.557Z,26.50
2023-01-31T12:55:33.440Z,26.70
2023-01-31T12:58:17.476Z,26.70
2023-01-31T13:00:55.959Z,26.60
2023-01-31T13:03:35.782Z,26.50
2023-01-31T13:06:12.072Z,26.30
2023-01-31T13:08:50.880Z,26.30
2023-01-31T13:11:32.255Z,26.50
2023-01-31T13:14:03.965Z,26.70
2023-01-31T13:16:36.952Z,26.80
2023-01-31T13:19:08.228Z,26.90
2023-01-31T13:21:41.716Z,27.00
2023-01-31T13:24:14.070Z,27.00
2023-01-31T13:26:46.456Z,27.00
2023-01-31T13:29:19.698Z,26.70
2023-01-31T13:31:51.584Z,26.30
2023-01-31T13:34:27.960Z,25.90
2023-01-31T13:37:01.109Z,25.40
2023-01-31T13:39:34.323Z,24.70
2023-01-31T13:42:02.492Z,24.00
2023-01-31T13:44:30.535Z,23.40
2023-01-31T13:47:02.485Z,22.80
2023-01-31T13:49:38.176Z,22.20
2023-01-31T13:52:13.577Z,21.70
2023-01-31T13:54:44.722Z,21.30
2023-01-31T13:57:24.350Z,21.10
2023-01-31T13:59:56.461Z,21.00
2023-01-31T14:02:24.614Z,20.80
2023-01-31T14:04:54.049Z,20.50
2023-01-31T14:07:24.334Z,20.20
2023-01-31T14:10:38.157Z,19.80
2023-01-31T14:13:43.834Z,19.50
2023-01-31T14:16:40.881Z,19.10
2023-01-31T14:19:55.114Z,18.80
2023-01-31T14:22:26.872Z,18.70
2023-01-31T14:25:00.199Z,18.50
2023-01-31T14:27:32.270Z,18.20
2023-01-31T14:30:10.393Z,18.10
2023-01-31T14:32:42.684Z,17.90
2023-01-31T14:35:31.717Z,17.80
2023-01-31T14:38:13.185Z,17.90
2023-01-31T14:40:48.431Z,17.90
2023-01-31T14:43:30.646Z,18.10
2023-01-31T14:46:37.933Z,18.10
2023-01-31T14:49:39.933Z,18.10
2023-01-31T14:52:32.780Z,18.10
2023-01-31T14:55:23.491Z,18.20
2023-01-31T14:57:56.078Z,18.10
2023-01-31T15:00:27.894Z,18.00
2023-01-31T15:03:04.290Z,17.90
2023-01-31T15:05:44.997Z,17.70
2023-01-31T15:08:37.308Z,17.40
2023-01-31T15:11:09.005Z,17.10
2023-01-31T15:13:44.110Z,17.00
2023-01-31T15:16:22.064Z,16.90
2023-01-31T15:18:54.460Z,16.90
2023-01-31T15:21:28.693Z,16.70
2023-01-31T15:23:57.193Z,16.60
2023-01-31T15:26:29.299Z,16.30
2023-01-31T15:28:58.945Z,16.10
2023-01-31T15:31:32.240Z,15.70
2023-01-31T15:34:04.165Z,15.40
2023-01-31T15:36:35.241Z,15.10
2023-01-31T15:39:16.458Z,14.80
2023-01-31T15:41:46.535Z,14.50
2023-01-31T15:44:18.820Z,14.20
2023-01-31T15:46:48.468Z,14.00
2023-01-31T15:49:39.026Z,13.80
2023-01-31T15:52:14.326Z,13.60
2023-01-31T15:54:57.259Z,13.40
2023-01-31T15:57:30.647Z,13.20
2023-01-31T15:59:59.174Z,13.00
2023-01-31T16:02:29.922Z,12.90
2023-01-31T16:04:58.509Z,12.70
2023-01-31T16:07:31.394Z,12.50
2023-01-31T16:10:02.924Z,12.40
2023-01-31T16:12:34.198Z,12.20
2023-01-31T16:17:33.494Z,11.90
2023-01-31T16:20:01.892Z,11.80
2023-01-31T16:22:32.086Z,11.60
2023-01-31T16:25:01.972Z,11.50
2023-01-31T16:27:36.460Z,11.30
2023-01-31T16:30:05.574Z,11.20
2023-01-31T16:32:35.297Z,11.10
2023-01-31T16:35:06.008Z,11.00
2023-01-31T16:37:38.929Z,10.90
2023-01-31T16:40:19.917Z,10.80
2023-01-31T16:42:49.401Z,10.70
2023-01-31T16:45:29.728Z,10.60
2023-01-31T16:48:15.806Z,10.40
2023-01-31T16:50:44.005Z,10.30
2023-01-31T16:53:27.490Z,10.30
2023-01-31T16:56:18.808Z,10.20
2023-01-31T16:58:52.187Z,10.20
2023-01-31T17:01:23.276Z,10.10
2023-01-31T17:04:19.152Z,10.10
2023-01-31T17:06:52.115Z,10.00
2023-01-31T17:09:23.348Z,9.90
2023-01-31T17:11:51.943Z,9.80
2023-01-31T17:14:21.462Z,9.80
2023-01-31T17:16:51.889Z,9.70
2023-01-31T17:19:20.081Z,9.60
2023-01-31T17:21:49.692Z,9.50
2023-01-31T17:24:20.125Z,9.50
2023-01-31T17:29:16.652Z,9.30
2023-01-31T17:31:46.600Z,9.20
2023-01-31T17:34:15.506Z,9.20
2023-01-31T17:36:44.311Z,9.10
2023-01-31T17:39:12.557Z,9.10
2023-01-31T17:41:41.692Z,9.00
2023-01-31T17:44:14.157Z,9.00
2023-01-31T17:46:43.079Z,8.90
2023-01-31T17:49:12.711Z,8.90
2023-01-31T17:51:41.050Z,8.80
2023-01-31T17:54:10.222Z,8.80
2023-01-31T17:59:08.471Z,8.60
2023-01-31T18:04:06.774Z,8.60
2023-01-31T18:06:50.659Z,8.50
2023-01-31T18:09:20.303Z,8.50
2023-01-31T18:11:48.763Z,8.50
2023-01-31T18:14:16.818Z,8.40
2023-01-31T18:16:44.949Z,8.40
2023-01-31T18:19:14.393Z,8.30
2023-01-31T18:21:53.422Z,8.30
2023-01-31T18:24:23.012Z,8.20
2023-01-31T18:26:51.081Z,8.20
2023-01-31T18:29:20.927Z,8.10
2023-01-31T18:31:49.331Z,8.10
2023-01-31T18:34:17.430Z,8.10
2023-01-31T18:36:46.862Z,8.00
2023-01-31T18:39:14.903Z,8.00
2023-01-31T18:41:43.371Z,8.00
2023-01-31T18:44:11.564Z,8.00
2023-01-31T18:46:39.739Z,7.90
2023-01-31T18:49:08.201Z,7.90
2023-01-31T18:51:36.510Z,7.80
2023-01-31T18:54:07.674Z,7.80
2023-01-31T18:56:35.874Z,7.70
2023-01-31T18:59:03.982Z,7.70
2023-01-31T19:01:32.140Z,7.60
2023-01-31T19:04:00.396Z,7.60
2023-01-31T19:06:32.058Z,7.50
2023-01-31T19:11:31.063Z,7.40
2023-01-31T19:13:59.527Z,7.40
2023-01-31T19:16:28.951Z,7.40
2023-01-31T19:18:58.270Z,7.30
2023-01-31T19:21:28.809Z,7.30
2023-01-31T19:23:59.290Z,7.30
2023-01-31T19:26:29.757Z,7.20
2023-01-31T19:28:58.645Z,7.20
2023-01-31T19:31:31.073Z,7.10
2023-01-31T19:34:00.934Z,7.10
2023-01-31T19:36:31.313Z,7.00
2023-01-31T19:39:01.251Z,7.00
2023-01-31T19:41:30.682Z,6.90
2023-01-31T19:44:00.305Z,6.90
2023-01-31T19:46:30.290Z,6.80
2023-01-31T19:48:59.448Z,6.80
2023-01-31T19:51:28.646Z,6.70
2023-01-31T19:54:00.074Z,6.70
2023-01-31T19:56:28.438Z,6.70
2023-01-31T19:58:58.253Z,6.60
2023-01-31T20:01:26.389Z,6.60
2023-01-31T20:03:55.434Z,6.50
2023-01-31T20:06:26.185Z,6.40
2023-01-31T20:08:55.390Z,6.40
2023-01-31T20:11:24.024Z,6.40
2023-01-31T20:13:52.758Z,6.40
2023-01-31T20:16:23.348Z,6.40
2023-01-31T20:18:53.016Z,6.40
2023-01-31T20:21:22.844Z,6.30
2023-01-31T20:23:51.312Z,6.30
2023-01-31T20:26:22.293Z,6.30
2023-01-31T20:28:50.464Z,6.20
2023-01-31T20:31:19.397Z,6.20
2023-01-31T20:33:48.954Z,6.20
2023-01-31T20:36:17.043Z,6.10
2023-01-31T20:38:45.145Z,6.10
2023-01-31T20:41:15.041Z,6.10
2023-01-31T20:43:43.252Z,6.00
2023-01-31T20:46:13.064Z,6.00
2023-01-31T20:51:12.014Z,5.90
2023-01-31T20:53:40.262Z,5.90
2023-01-31T20:56:10.569Z,5.90
2023-01-31T20:58:41.096Z,5.80
2023-01-31T21:01:10.848Z,5.80
2023-01-31T21:03:39.192Z,5.80
2023-01-31T21:06:08.435Z,5.80
2023-01-31T21:08:39.892Z,5.80
2023-01-31T21:11:09.660Z,5.80
2023-01-31T21:13:38.406Z,5.80
2023-01-31T21:16:08.641Z,5.80
2023-01-31T21:18:38.718Z,5.80
2023-01-31T21:21:08.830Z,5.80
2023-01-31T21:23:39.638Z,5.80
2023-01-31T21:26:09.257Z,5.80
2023-01-31T21:28:39.751Z,5.80
2023-01-31T21:31:16.695Z,5.80
2023-01-31T21:33:45.734Z,5.80
2023-01-31T21:36:16.120Z,5.80
2023-01-31T21:38:45.962Z,5.80
2023-01-31T21:41:32.115Z,5.80
2023-01-31T21:44:00.619Z,5.80
2023-01-31T21:46:29.089Z,5.80
2023-01-31T21:48:57.589Z,5.80
2023-01-31T21:51:26.255Z,5.80
2023-01-31T21:53:55.824Z,5.80
2023-01-31T21:56:25.514Z,5.70
2023-01-31T21:58:55.455Z,5.70
2023-01-31T22:01:25.152Z,5.70
2023-01-31T22:03:54.297Z,5.70
2023-01-31T22:06:25.749Z,5.70
2023-01-31T22:08:57.539Z,5.70
2023-01-31T22:11:26.469Z,5.70
2023-01-31T22:13:56.228Z,5.70
2023-01-31T22:16:24.891Z,5.70
2023-01-31T22:18:53.632Z,5.70
2023-01-31T22:21:23.978Z,5.70
2023-01-31T22:23:54.265Z,5.70
2023-01-31T22:26:26.057Z,5.70
2023-01-31T22:28:56.345Z,5.60
2023-01-31T22:31:24.816Z,5.60
2023-01-31T22:33:53.919Z,5.60
2023-01-31T22:36:22.025Z,5.60
2023-01-31T22:38:50.198Z,5.60
2023-01-31T22:41:20.102Z,5.60
2023-01-31T22:43:51.359Z,5.60
2023-01-31T22:46:21.746Z,5.60
2023-01-31T22:48:50.429Z,5.60
2023-01-31T22:51:20.563Z,5.60
2023-01-31T22:53:49.650Z,5.70
2023-01-31T22:56:20.023Z,5.70
2023-01-31T22:58:49.894Z,5.70
2023-01-31T23:01:20.544Z,5.70
2023-01-31T23:03:49.410Z,5.70
2023-01-31T23:06:18.850Z,5.70
2023-01-31T23:08:47.035Z,5.70
2023-01-31T23:11:17.417Z,5.70
2023-01-31T23:13:46.424Z,5.70
2023-01-31T23:16:19.725Z,5.70
2023-01-31T23:18:48.731Z,5.70
2023-01-31T23:21:18.568Z,5.80
2023-01-31T23:23:47.378Z,5.80
2023-01-31T23:26:15.703Z,5.80
2023-01-31T23:28:43.863Z,5.80
2023-01-31T23:31:12.043Z,5.80
2023-01-31T23:33:41.576Z,5.80
2023-01-31T23:36:10.330Z,5.90
2023-01-31T23:38:38.461Z,5.90
2023-01-31T23:41:06.636Z,5.90
2023-01-31T23:43:34.791Z,5.90
2023-01-31T23:46:03.166Z,5.90
2023-01-31T23:48:31.287Z,5.90
2023-01-31T23:51:05.396Z,5.90
2023-01-31T23:53:33.498Z,5.90
2023-01-31T23:56:01.536Z,5.90
2023-01-31T23:58:29.830Z,5.90
